createdAt,value
2022-07-28T00:01:23.374Z,2.20
2022-07-28T00:03:49.796Z,1.60
2022-07-28T00:06:16.638Z,1.87
2022-07-28T00:08:43.013Z,2.13
2022-07-28T00:11:09.418Z,2.00
2022-07-28T00:13:35.875Z,2.30
2022-07-28T00:16:02.868Z,1.90
2022-07-28T00:18:29.353Z,2.10
2022-07-28T00:20:56.556Z,1.50
2022-07-28T00:23:22.942Z,1.40
2022-07-28T00:26:04.965Z,1.73
2022-07-28T00:28:31.361Z,1.60
2022-07-28T00:30:57.734Z,2.30
2022-07-28T00:33:31.397Z,2.07
2022-07-28T00:35:57.857Z,1.80
2022-07-28T00:38:24.792Z,2.00
2022-07-28T00:41:10.991Z,1.83
2022-07-28T00:43:45.938Z,2.00
2022-07-28T00:46:14.669Z,1.90
2022-07-28T00:48:44.927Z,2.00
2022-07-28T00:51:11.612Z,2.27
2022-07-28T00:53:38.847Z,2.03
2022-07-28T00:56:06.900Z,1.90
2022-07-28T00:58:35.433Z,1.90
2022-07-28T01:01:01.969Z,2.40
2022-07-28T01:03:29.406Z,2.20
2022-07-28T01:05:58.623Z,2.50
2022-07-28T01:08:40.810Z,1.97
2022-07-28T01:11:17.143Z,2.00
2022-07-28T01:14:03.787Z,2.20
2022-07-28T01:16:30.258Z,2.10
2022-07-28T01:19:09.512Z,2.33
2022-07-28T01:21:37.902Z,2.17
2022-07-28T01:24:16.525Z,2.17
2022-07-28T01:26:53.509Z,2.20
2022-07-28T01:29:41.406Z,2.13
2022-07-28T01:32:16.011Z,2.67
2022-07-28T01:34:48.598Z,2.37
2022-07-28T01:37:21.020Z,2.33
2022-07-28T01:39:52.113Z,2.20
2022-07-28T01:42:22.624Z,1.90
2022-07-28T01:44:52.614Z,2.57
2022-07-28T01:47:20.800Z,1.50
2022-07-28T01:49:50.930Z,1.90
2022-07-28T01:52:19.089Z,2.27
2022-07-28T01:54:47.420Z,2.30
2022-07-28T01:57:16.837Z,1.93
2022-07-28T01:59:43.825Z,2.57
2022-07-28T02:02:10.677Z,2.37
2022-07-28T02:04:40.334Z,2.03
2022-07-28T02:07:10.415Z,1.77
2022-07-28T02:09:37.996Z,1.90
2022-07-28T02:12:05.520Z,1.90
2022-07-28T02:14:36.217Z,2.23
2022-07-28T02:17:10.054Z,2.20
2022-07-28T02:19:39.144Z,2.07
2022-07-28T02:22:06.171Z,2.53
2022-07-28T02:24:33.760Z,2.30
2022-07-28T02:27:05.847Z,2.20
2022-07-28T02:29:51.925Z,2.40
2022-07-28T02:32:29.130Z,2.20
2022-07-28T02:35:01.475Z,1.90
2022-07-28T02:37:34.714Z,2.43
2022-07-28T02:40:04.074Z,2.37
2022-07-28T02:42:33.204Z,2.20
2022-07-28T02:45:02.972Z,2.47
2022-07-28T02:47:34.864Z,2.07
2022-07-28T02:50:02.751Z,1.90
2022-07-28T02:52:29.400Z,2.40
2022-07-28T02:54:58.894Z,2.00
2022-07-28T02:57:26.718Z,2.50
2022-07-28T02:59:54.215Z,2.67
2022-07-28T03:02:22.019Z,2.60
2022-07-28T03:05:01.964Z,2.00
2022-07-28T03:07:30.211Z,2.43
2022-07-28T03:09:57.724Z,2.37
2022-07-28T03:12:24.199Z,2.43
2022-07-28T03:14:50.551Z,2.40
2022-07-28T03:17:17.400Z,2.60
2022-07-28T03:19:43.809Z,2.57
2022-07-28T03:22:11.617Z,2.03
2022-07-28T03:24:41.868Z,2.17
2022-07-28T03:27:26.011Z,1.83
2022-07-28T03:30:03.710Z,1.97
2022-07-28T03:32:34.261Z,2.03
2022-07-28T03:35:01.096Z,1.80
2022-07-28T03:37:35.567Z,2.03
2022-07-28T03:40:04.577Z,2.40
2022-07-28T03:42:32.334Z,2.20
2022-07-28T03:45:00.465Z,2.50
2022-07-28T03:47:26.939Z,2.03
2022-07-28T03:49:53.409Z,2.47
2022-07-28T03:52:19.846Z,2.60
2022-07-28T03:54:46.213Z,2.37
2022-07-28T03:57:13.782Z,2.37
2022-07-28T03:59:40.253Z,2.70
2022-07-28T04:02:06.832Z,2.37
2022-07-28T04:04:33.352Z,2.27
2022-07-28T04:06:59.758Z,2.57
2022-07-28T04:09:26.164Z,2.33
2022-07-28T04:11:52.684Z,2.37
2022-07-28T04:14:19.458Z,2.07
2022-07-28T04:16:46.190Z,2.10
2022-07-28T04:19:12.610Z,2.43
2022-07-28T04:21:39.057Z,2.40
2022-07-28T04:24:06.083Z,2.53
2022-07-28T04:26:32.480Z,2.37
2022-07-28T04:28:58.912Z,2.60
2022-07-28T04:31:29.922Z,3.33
2022-07-28T04:34:01.229Z,2.90
2022-07-28T04:36:27.671Z,3.20
2022-07-28T04:38:54.133Z,2.40
2022-07-28T04:41:21.161Z,2.47
2022-07-28T04:43:47.538Z,2.57
2022-07-28T04:46:15.286Z,3.03
2022-07-28T04:48:42.233Z,2.53
2022-07-28T04:51:08.658Z,2.57
2022-07-28T04:53:35.417Z,2.83
2022-07-28T04:56:02.236Z,2.73
2022-07-28T04:58:30.971Z,2.10
2022-07-28T05:00:57.730Z,2.50
2022-07-28T05:03:24.103Z,3.07
2022-07-28T05:05:54.095Z,2.83
2022-07-28T05:08:21.343Z,2.83
2022-07-28T05:10:48.254Z,2.37
2022-07-28T05:13:14.739Z,2.60
2022-07-28T05:15:41.123Z,2.87
2022-07-28T05:18:07.502Z,2.97
2022-07-28T05:20:33.928Z,2.87
2022-07-28T05:23:00.319Z,3.27
2022-07-28T05:25:26.727Z,3.00
2022-07-28T05:27:54.369Z,2.70
2022-07-28T05:30:20.896Z,3.00
2022-07-28T05:32:49.051Z,3.00
2022-07-28T05:35:15.767Z,2.33
2022-07-28T05:37:42.581Z,3.00
2022-07-28T05:40:14.169Z,2.73
2022-07-28T05:42:42.355Z,2.93
2022-07-28T05:45:15.005Z,2.73
2022-07-28T05:47:44.061Z,3.00
2022-07-28T05:50:10.905Z,2.80
2022-07-28T05:52:37.283Z,2.97
2022-07-28T05:55:06.233Z,2.73
2022-07-28T05:57:32.654Z,3.50
2022-07-28T05:59:59.081Z,3.33
2022-07-28T06:02:25.599Z,2.70
2022-07-28T06:04:52.116Z,3.07
2022-07-28T06:07:18.499Z,3.13
2022-07-28T06:09:45.319Z,3.23
2022-07-28T06:12:11.875Z,3.10
2022-07-28T06:14:38.381Z,2.57
2022-07-28T06:17:04.906Z,3.10
2022-07-28T06:19:31.445Z,3.20
2022-07-28T06:21:57.858Z,3.33
2022-07-28T06:24:24.156Z,2.77
2022-07-28T06:26:50.617Z,3.07
2022-07-28T06:29:17.081Z,3.13
2022-07-28T06:31:43.431Z,3.67
2022-07-28T06:34:09.934Z,2.47
2022-07-28T06:36:36.342Z,2.97
2022-07-28T06:39:02.825Z,2.90
2022-07-28T06:41:29.188Z,2.60
2022-07-28T06:43:55.781Z,2.80
2022-07-28T06:46:22.782Z,2.40
2022-07-28T06:48:49.220Z,3.27
2022-07-28T06:51:18.915Z,2.77
2022-07-28T06:53:48.056Z,2.87
2022-07-28T06:56:15.763Z,2.40
2022-07-28T06:58:43.962Z,2.40
2022-07-28T07:01:14.842Z,2.47
2022-07-28T07:03:42.267Z,2.70
2022-07-28T07:06:10.582Z,2.33
2022-07-28T07:08:36.995Z,2.70
2022-07-28T07:11:03.401Z,2.77
2022-07-28T07:13:29.877Z,2.73
2022-07-28T07:15:56.355Z,2.57
2022-07-28T07:18:22.808Z,2.53
2022-07-28T07:20:49.232Z,2.37
2022-07-28T07:23:15.711Z,2.10
2022-07-28T07:25:42.090Z,2.10
2022-07-28T07:28:08.495Z,2.33
2022-07-28T07:30:34.907Z,2.33
2022-07-28T07:33:01.412Z,2.33
2022-07-28T07:35:34.184Z,2.17
2022-07-28T07:38:00.754Z,2.10
2022-07-28T07:40:27.057Z,3.13
2022-07-28T07:42:53.423Z,2.10
2022-07-28T07:45:19.929Z,2.10
2022-07-28T07:47:46.358Z,2.07
2022-07-28T07:50:12.883Z,2.07
2022-07-28T07:52:39.284Z,2.00
2022-07-28T07:55:06.406Z,2.17
2022-07-28T07:57:32.829Z,2.37
2022-07-28T07:59:59.210Z,1.93
2022-07-28T08:02:25.525Z,2.13
2022-07-28T08:04:51.884Z,2.50
2022-07-28T08:07:18.332Z,2.40
2022-07-28T08:09:48.488Z,2.20
2022-07-28T08:12:14.853Z,1.83
2022-07-28T08:14:41.229Z,2.33
2022-07-28T08:17:08.527Z,2.10
2022-07-28T08:19:34.920Z,2.60
2022-07-28T08:22:01.431Z,2.20
2022-07-28T08:24:32.952Z,2.90
2022-07-28T08:27:01.729Z,2.40
2022-07-28T08:29:28.125Z,2.43
2022-07-28T08:31:54.568Z,2.10
2022-07-28T08:34:29.908Z,2.23
2022-07-28T08:37:01.275Z,2.27
2022-07-28T08:39:27.682Z,1.77
2022-07-28T08:41:58.737Z,2.00
2022-07-28T08:44:30.724Z,2.20
2022-07-28T08:46:58.796Z,2.20
2022-07-28T08:49:25.347Z,1.63
2022-07-28T08:51:55.905Z,1.90
2022-07-28T08:54:28.459Z,2.20
2022-07-28T08:56:55.733Z,2.30
2022-07-28T08:59:23.679Z,1.90
2022-07-28T09:01:57.017Z,2.00
2022-07-28T09:04:24.602Z,1.60
2022-07-28T09:06:51.113Z,1.80
2022-07-28T09:09:17.519Z,1.50
2022-07-28T09:11:43.881Z,1.73
2022-07-28T09:14:10.552Z,1.50
2022-07-28T09:16:37.701Z,1.47
2022-07-28T09:19:04.093Z,1.40
2022-07-28T09:21:30.905Z,1.50
2022-07-28T09:23:57.390Z,1.57
2022-07-28T09:26:23.834Z,1.70
2022-07-28T09:28:54.099Z,1.47
2022-07-28T09:31:23.163Z,1.77
2022-07-28T09:33:56.722Z,1.87
2022-07-28T09:36:23.431Z,1.60
2022-07-28T09:38:50.210Z,1.90
2022-07-28T09:41:19.606Z,1.40
2022-07-28T09:43:49.786Z,2.37
2022-07-28T09:46:22.552Z,1.70
2022-07-28T09:48:49.228Z,2.30
2022-07-28T09:51:18.850Z,1.77
2022-07-28T09:53:45.583Z,1.60
2022-07-28T09:56:13.149Z,1.73
2022-07-28T09:58:39.921Z,1.83
2022-07-28T10:01:08.691Z,1.67
2022-07-28T10:03:37.228Z,3.27
2022-07-28T10:06:11.406Z,2.07
2022-07-28T10:08:41.997Z,1.93
2022-07-28T10:11:10.392Z,1.80
2022-07-28T10:13:51.311Z,1.70
2022-07-28T10:16:18.906Z,1.93
2022-07-28T10:18:45.312Z,1.70
2022-07-28T10:21:13.266Z,2.10
2022-07-28T10:23:41.354Z,2.40
2022-07-28T10:26:12.955Z,1.20
2022-07-28T10:28:50.152Z,1.30
2022-07-28T10:31:34.818Z,2.20
2022-07-28T10:34:01.920Z,1.70
2022-07-28T10:36:30.971Z,1.50
2022-07-28T10:39:03.661Z,1.90
2022-07-28T10:41:38.362Z,1.20
2022-07-28T10:44:05.551Z,1.20
2022-07-28T10:46:32.904Z,1.50
2022-07-28T10:49:03.492Z,1.93
2022-07-28T10:51:30.855Z,1.60
2022-07-28T10:54:03.418Z,1.60
2022-07-28T10:56:38.955Z,2.10
2022-07-28T10:59:19.513Z,1.63
2022-07-28T11:01:50.090Z,1.20
2022-07-28T11:04:35.573Z,1.30
2022-07-28T11:07:12.855Z,1.30
2022-07-28T11:09:39.724Z,1.60
2022-07-28T11:12:06.284Z,1.70
2022-07-28T11:14:37.520Z,2.23
2022-07-28T11:17:04.725Z,1.80
2022-07-28T11:19:55.726Z,1.90
2022-07-28T11:22:29.649Z,1.30
2022-07-28T11:25:19.944Z,1.60
2022-07-28T11:27:51.367Z,1.40
2022-07-28T11:30:36.555Z,1.63
2022-07-28T11:33:04.962Z,2.03
2022-07-28T11:35:51.894Z,1.67
2022-07-28T11:38:18.365Z,1.40
2022-07-28T11:40:46.900Z,1.60
2022-07-28T11:43:33.974Z,1.17
2022-07-28T11:46:09.478Z,1.37
2022-07-28T11:48:37.636Z,1.57
2022-07-28T11:51:04.195Z,1.97
2022-07-28T11:53:40.730Z,1.40
2022-07-28T11:56:09.029Z,1.40
2022-07-28T11:58:35.926Z,1.23
2022-07-28T12:01:17.771Z,1.27
2022-07-28T12:03:50.421Z,1.00
2022-07-28T12:06:28.871Z,1.67
2022-07-28T12:09:05.317Z,1.80
2022-07-28T12:11:33.858Z,1.30
2022-07-28T12:14:07.881Z,1.10
2022-07-28T12:16:35.798Z,1.53
2022-07-28T12:19:04.600Z,1.20
2022-07-28T12:21:45.998Z,1.87
2022-07-28T12:24:27.621Z,1.60
2022-07-28T12:26:54.232Z,1.70
2022-07-28T12:29:20.971Z,1.93
2022-07-28T12:31:52.966Z,2.20
2022-07-28T12:34:20.821Z,1.50
2022-07-28T12:36:47.613Z,1.37
2022-07-28T12:39:17.083Z,1.67
2022-07-28T12:41:43.781Z,1.30
2022-07-28T12:44:11.996Z,1.50
2022-07-28T12:46:38.762Z,2.23
2022-07-28T12:49:05.198Z,1.83
2022-07-28T12:51:32.385Z,1.50
2022-07-28T12:53:59.016Z,1.70
2022-07-28T12:56:25.604Z,1.70
2022-07-28T12:59:10.031Z,1.77
2022-07-28T13:01:57.482Z,1.23
2022-07-28T13:04:38.819Z,1.60
2022-07-28T13:07:09.718Z,1.20
2022-07-28T13:09:41.506Z,1.30
2022-07-28T13:12:15.722Z,1.60
2022-07-28T13:14:43.541Z,1.47
2022-07-28T13:17:10.331Z,1.40
2022-07-28T13:19:36.932Z,1.30
2022-07-28T13:22:08.557Z,1.97
2022-07-28T13:24:35.465Z,1.53
2022-07-28T13:27:02.688Z,1.60
2022-07-28T13:29:32.490Z,1.43
2022-07-28T13:31:59.002Z,1.60
2022-07-28T13:34:25.399Z,1.63
2022-07-28T13:36:52.407Z,1.63
2022-07-28T13:39:18.860Z,2.10
2022-07-28T13:41:56.664Z,1.30
2022-07-28T13:44:26.203Z,1.23
2022-07-28T13:46:53.110Z,1.60
2022-07-28T13:49:22.457Z,1.30
2022-07-28T13:51:49.134Z,1.33
2022-07-28T13:54:18.120Z,1.50
2022-07-28T13:56:45.103Z,1.73
2022-07-28T13:59:13.149Z,1.73
2022-07-28T14:01:41.014Z,1.73
2022-07-28T14:04:14.598Z,1.60
2022-07-28T14:06:44.713Z,1.73
2022-07-28T14:09:11.906Z,1.33
2022-07-28T14:11:41.176Z,1.60
2022-07-28T14:14:17.035Z,1.63
2022-07-28T14:16:47.833Z,1.33
2022-07-28T14:19:16.373Z,1.63
2022-07-28T14:21:49.506Z,1.07
2022-07-28T14:24:16.512Z,1.57
2022-07-28T14:26:43.478Z,1.37
2022-07-28T14:29:11.221Z,1.20
2022-07-28T14:31:38.410Z,1.60
2022-07-28T14:34:04.907Z,1.23
2022-07-28T14:36:31.405Z,1.53
2022-07-28T14:38:57.861Z,1.47
2022-07-28T14:41:25.701Z,1.07
2022-07-28T14:43:52.831Z,1.30
2022-07-28T14:46:21.631Z,1.30
2022-07-28T14:48:48.659Z,1.60
2022-07-28T14:51:15.018Z,1.80
2022-07-28T14:53:50.040Z,1.57
2022-07-28T14:56:18.354Z,2.23
2022-07-28T14:58:44.735Z,1.33
2022-07-28T15:01:11.156Z,1.70
2022-07-28T15:03:37.581Z,1.40
2022-07-28T15:06:09.850Z,1.37
2022-07-28T15:08:36.615Z,1.20
2022-07-28T15:11:03.140Z,1.50
2022-07-28T15:13:29.623Z,1.27
2022-07-28T15:15:56.128Z,1.37
2022-07-28T15:18:22.458Z,1.77
2022-07-28T15:20:51.225Z,1.50
2022-07-28T15:23:18.311Z,1.70
2022-07-28T15:25:46.852Z,1.80
2022-07-28T15:28:17.568Z,1.30
2022-07-28T15:30:51.247Z,1.60
2022-07-28T15:33:19.680Z,1.30
2022-07-28T15:35:58.093Z,1.40
2022-07-28T15:38:26.421Z,1.40
2022-07-28T15:40:52.926Z,1.20
2022-07-28T15:43:19.465Z,1.40
2022-07-28T15:45:50.622Z,1.60
2022-07-28T15:48:17.080Z,1.30
2022-07-28T15:50:48.739Z,1.50
2022-07-28T15:53:15.604Z,1.47
2022-07-28T15:55:43.497Z,1.30
2022-07-28T15:58:11.594Z,1.40
2022-07-28T16:00:38.156Z,1.33
2022-07-28T16:03:04.690Z,1.40
2022-07-28T16:05:31.042Z,1.20
2022-07-28T16:07:58.322Z,1.47
2022-07-28T16:10:25.396Z,1.43
2022-07-28T16:12:52.059Z,1.00
2022-07-28T16:15:18.939Z,1.53
2022-07-28T16:17:45.245Z,0.97
2022-07-28T16:20:11.624Z,1.07
2022-07-28T16:22:40.521Z,1.23
2022-07-28T16:25:08.160Z,1.33
2022-07-28T16:27:34.937Z,1.30
2022-07-28T16:30:02.958Z,1.20
2022-07-28T16:32:29.268Z,1.40
2022-07-28T16:34:55.628Z,1.30
2022-07-28T16:37:22.290Z,1.47
2022-07-28T16:39:48.615Z,1.50
2022-07-28T16:42:14.909Z,1.27
2022-07-28T16:44:42.532Z,1.70
2022-07-28T16:47:08.825Z,1.20
2022-07-28T16:49:35.101Z,1.40
2022-07-28T16:52:01.389Z,1.00
2022-07-28T16:54:27.991Z,1.30
2022-07-28T16:56:55.301Z,2.80
2022-07-28T16:59:22.615Z,1.27
2022-07-28T17:01:49.144Z,1.30
2022-07-28T17:04:16.206Z,1.47
2022-07-28T17:06:42.952Z,1.50
2022-07-28T17:09:09.426Z,1.10
2022-07-28T17:11:36.077Z,1.20
2022-07-28T17:14:03.133Z,1.37
2022-07-28T17:16:29.484Z,1.63
2022-07-28T17:18:56.084Z,1.10
2022-07-28T17:21:22.375Z,1.40
2022-07-28T17:23:48.730Z,1.30
2022-07-28T17:27:32.362Z,2.03
2022-07-28T17:29:01.458Z,1.50
2022-07-28T17:31:27.877Z,1.20
2022-07-28T17:34:00.163Z,1.77
2022-07-28T17:36:26.665Z,1.87
2022-07-28T17:38:53.040Z,1.80
2022-07-28T17:41:20.449Z,1.10
2022-07-28T17:43:46.854Z,1.47
2022-07-28T17:46:13.328Z,1.27
2022-07-28T17:48:40.275Z,1.30
2022-07-28T17:51:08.277Z,1.07
2022-07-28T17:53:39.398Z,1.50
2022-07-28T17:56:06.035Z,1.53
2022-07-28T17:58:35.140Z,1.70
2022-07-28T18:01:10.946Z,1.63
2022-07-28T18:03:56.962Z,1.70
2022-07-28T18:06:26.997Z,1.77
2022-07-28T18:08:53.275Z,1.27
2022-07-28T18:11:19.682Z,1.43
2022-07-28T18:14:04.325Z,1.50
2022-07-28T18:16:34.113Z,1.40
2022-07-28T18:19:00.761Z,1.30
2022-07-28T18:21:27.175Z,1.67
2022-07-28T18:23:54.929Z,2.10
2022-07-28T18:26:21.937Z,1.57
2022-07-28T18:28:48.418Z,1.50
2022-07-28T18:31:14.828Z,1.23
2022-07-28T18:33:41.345Z,1.60
2022-07-28T18:36:08.026Z,1.63
2022-07-28T18:38:34.382Z,1.67
2022-07-28T18:41:01.016Z,2.07
2022-07-28T18:43:27.639Z,1.57
2022-07-28T18:45:53.975Z,1.87
2022-07-28T18:48:20.690Z,1.50
2022-07-28T18:50:47.063Z,1.40
2022-07-28T18:53:13.406Z,1.40
2022-07-28T18:55:40.206Z,1.30
2022-07-28T18:58:06.507Z,1.20
2022-07-28T19:00:33.623Z,1.73
2022-07-28T19:03:00.274Z,1.97
2022-07-28T19:05:27.005Z,1.30
2022-07-28T19:08:04.189Z,1.60
2022-07-28T19:10:30.559Z,1.30
2022-07-28T19:12:56.872Z,1.60
2022-07-28T19:15:23.252Z,1.30
2022-07-28T19:18:09.911Z,1.87
2022-07-28T19:20:36.179Z,1.90
2022-07-28T19:23:05.388Z,1.57
2022-07-28T19:25:32.299Z,1.50
2022-07-28T19:27:58.676Z,1.63
2022-07-28T19:30:25.100Z,1.63
2022-07-28T19:32:51.679Z,1.93
2022-07-28T19:35:18.122Z,1.80
2022-07-28T19:37:44.722Z,1.90
2022-07-28T19:40:11.718Z,1.60
2022-07-28T19:42:38.138Z,2.00
2022-07-28T19:45:06.002Z,1.90
2022-07-28T19:47:32.637Z,1.63
2022-07-28T19:50:04.882Z,1.60
2022-07-28T19:52:31.317Z,1.90
2022-07-28T19:54:57.721Z,1.50
2022-07-28T19:57:24.751Z,1.60
2022-07-28T19:59:51.119Z,1.23
2022-07-28T20:02:17.743Z,1.47
2022-07-28T20:04:44.175Z,1.50
2022-07-28T20:07:10.541Z,1.50
2022-07-28T20:09:37.389Z,1.20
2022-07-28T20:12:04.134Z,1.60
2022-07-28T20:14:34.102Z,1.57
2022-07-28T20:17:00.513Z,1.50
2022-07-28T20:19:27.218Z,1.97
2022-07-28T20:21:53.609Z,2.10
2022-07-28T20:24:20.021Z,2.00
2022-07-28T20:26:46.472Z,1.80
2022-07-28T20:29:12.850Z,1.87
2022-07-28T20:31:39.337Z,2.33
2022-07-28T20:34:06.759Z,2.57
2022-07-28T20:36:36.389Z,2.10
2022-07-28T20:39:15.751Z,2.40
2022-07-28T20:41:50.335Z,2.47
2022-07-28T20:44:30.049Z,2.00
2022-07-28T20:47:02.239Z,1.97
2022-07-28T20:49:29.378Z,1.90
2022-07-28T20:51:57.494Z,1.60
2022-07-28T20:54:25.328Z,1.93
2022-07-28T20:56:51.761Z,1.73
2022-07-28T20:59:18.144Z,1.77
2022-07-28T21:01:44.574Z,1.90
2022-07-28T21:04:11.771Z,1.93
2022-07-28T21:06:38.969Z,2.20
2022-07-28T21:09:18.078Z,2.20
2022-07-28T21:11:44.480Z,2.13
2022-07-28T21:14:10.831Z,1.77
2022-07-28T21:16:37.273Z,2.17
2022-07-28T21:19:04.348Z,1.90
2022-07-28T21:21:30.788Z,1.93
2022-07-28T21:23:57.083Z,2.33
2022-07-28T21:26:23.512Z,2.03
2022-07-28T21:29:08.463Z,2.40
2022-07-28T21:31:34.858Z,2.63
2022-07-28T21:34:21.136Z,2.00
2022-07-28T21:36:47.706Z,1.77
2022-07-28T21:39:14.409Z,1.80
2022-07-28T21:41:41.109Z,2.27
2022-07-28T21:44:07.469Z,2.30
2022-07-28T21:46:33.923Z,2.07
2022-07-28T21:49:00.586Z,2.20
2022-07-28T21:51:27.504Z,2.50
2022-07-28T21:53:53.956Z,2.30
2022-07-28T21:56:20.404Z,2.33
2022-07-28T21:58:47.272Z,1.97
2022-07-28T22:01:13.778Z,2.20
2022-07-28T22:03:40.464Z,1.90
2022-07-28T22:06:07.260Z,2.00
2022-07-28T22:08:34.159Z,2.40
2022-07-28T22:11:01.143Z,1.70
2022-07-28T22:13:27.613Z,1.87
2022-07-28T22:15:54.714Z,1.83
2022-07-28T22:18:21.230Z,2.20
2022-07-28T22:20:47.705Z,2.40
2022-07-28T22:23:17.981Z,2.30
2022-07-28T22:25:55.217Z,2.07
2022-07-28T22:28:29.287Z,2.67
2022-07-28T22:30:56.831Z,2.43
2022-07-28T22:33:23.181Z,2.10
2022-07-28T22:35:49.559Z,1.80
2022-07-28T22:38:15.896Z,2.30
2022-07-28T22:40:42.267Z,2.13
2022-07-28T22:43:08.568Z,2.50
2022-07-28T22:45:49.716Z,2.50
2022-07-28T22:48:18.332Z,2.90
2022-07-28T22:50:44.891Z,2.80
2022-07-28T22:53:11.277Z,2.10
2022-07-28T22:55:37.631Z,2.33
2022-07-28T22:58:05.684Z,2.03
2022-07-28T23:00:32.475Z,2.10
2022-07-28T23:03:02.426Z,1.97
2022-07-28T23:05:28.864Z,2.00
2022-07-28T23:07:57.371Z,2.20
2022-07-28T23:10:25.148Z,2.53
2022-07-28T23:12:51.512Z,2.40
2022-07-28T23:15:17.951Z,2.03
2022-07-28T23:17:44.245Z,2.30
2022-07-28T23:20:11.038Z,1.80
2022-07-28T23:22:37.918Z,2.63
2022-07-28T23:25:04.761Z,2.00
2022-07-28T23:27:31.042Z,2.10
2022-07-28T23:29:57.427Z,2.30
2022-07-28T23:32:23.888Z,2.37
2022-07-28T23:34:50.232Z,2.27
2022-07-28T23:37:16.862Z,2.47
2022-07-28T23:39:43.334Z,2.50
2022-07-28T23:42:09.729Z,1.80
2022-07-28T23:44:37.766Z,2.07
2022-07-28T23:47:04.246Z,1.83
2022-07-28T23:49:30.696Z,2.97
2022-07-28T23:51:57.106Z,2.10
2022-07-28T23:54:23.477Z,2.30
2022-07-28T23:56:55.550Z,2.23
2022-07-28T23:59:23.286Z,2.43
